createdAt,value
2022-11-23T00:03:07.213Z,49.6
2022-11-23T00:08:30.294Z,49.5
2022-11-23T00:14:08.660Z,49.5
2022-11-23T00:19:32.911Z,49.4
2022-11-23T00:25:11.342Z,49.4
2022-11-23T00:30:49.039Z,49.3
2022-11-23T00:36:12.149Z,49.3
2022-11-23T00:41:49.993Z,49.3
2022-11-23T00:47:12.373Z,49.2
2022-11-23T00:52:50.516Z,49.2
2022-11-23T00:58:28.600Z,49.1
2022-11-23T01:04:06.783Z,49.1
2022-11-23T01:09:45.497Z,49.1
2022-11-23T01:14:51.317Z,49
2022-11-23T01:19:57.833Z,48.9
2022-11-23T01:25:20.032Z,48.9
2022-11-23T01:30:14.719Z,48.9
2022-11-23T01:35:27.174Z,48.9
2022-11-23T01:40:37.640Z,48.8
2022-11-23T01:45:44.115Z,48.8
2022-11-23T01:51:05.874Z,48.8
2022-11-23T01:56:32.759Z,48.7
2022-11-23T02:01:23.656Z,48.6
2022-11-23T02:06:45.290Z,48.6
2022-11-23T02:12:08.244Z,48.6
2022-11-23T02:17:47.889Z,48.5
2022-11-23T02:23:24.513Z,48.4
2022-11-23T02:29:03.697Z,48.4
2022-11-23T02:34:40.658Z,48.4
2022-11-23T02:40:03.712Z,48.3
2022-11-23T02:45:41.794Z,48.3
2022-11-23T02:51:18.838Z,48.3
2022-11-23T02:56:40.670Z,48.2
2022-11-23T03:02:19.035Z,48.2
2022-11-23T03:07:56.312Z,48.1
2022-11-23T03:13:33.136Z,48.1
2022-11-23T03:19:11.514Z,48.1
2022-11-23T03:24:17.991Z,48
2022-11-23T03:29:55.594Z,48
2022-11-23T03:35:33.017Z,47.9
2022-11-23T03:41:11.334Z,47.9
2022-11-23T03:46:48.904Z,47.8
2022-11-23T03:52:27.249Z,47.8
2022-11-23T03:58:05.043Z,47.8
2022-11-23T04:03:43.526Z,47.8
2022-11-23T04:09:21.261Z,47.7
2022-11-23T04:14:59.068Z,47.6
2022-11-23T04:20:05.876Z,47.6
2022-11-23T04:25:47.071Z,47.6
2022-11-23T04:31:24.589Z,47.5
2022-11-23T04:36:30.152Z,47.4
2022-11-23T04:42:08.509Z,47.4
2022-11-23T04:47:33.649Z,47.3
2022-11-23T04:53:14.251Z,47.3
2022-11-23T04:58:36.801Z,47.3
2022-11-23T05:04:17.697Z,47.2
2022-11-23T05:09:55.443Z,47.1
2022-11-23T05:15:33.732Z,47.1
2022-11-23T05:21:10.647Z,47.1
2022-11-23T05:26:49.837Z,47
2022-11-23T05:32:55.303Z,46.9
2022-11-23T05:38:21.752Z,46.9
2022-11-23T05:43:43.886Z,46.9
2022-11-23T05:48:53.265Z,46.8
2022-11-23T05:54:30.583Z,46.7
2022-11-23T05:59:36.713Z,46.6
2022-11-23T06:05:16.316Z,46.6
2022-11-23T06:10:39.419Z,46.6
2022-11-23T06:16:01.731Z,46.5
2022-11-23T06:21:39.599Z,46.4
2022-11-23T06:27:18.106Z,46.4
2022-11-23T06:32:56.384Z,46.4
2022-11-23T06:38:39.441Z,46.3
2022-11-23T06:44:49.357Z,46.3
2022-11-23T06:50:32.517Z,46.3
2022-11-23T06:56:10.550Z,46.2
2022-11-23T07:01:48.059Z,46.1
2022-11-23T07:07:26.643Z,46.1
2022-11-23T07:13:05.710Z,46.1
2022-11-23T07:18:42.902Z,46
2022-11-23T07:24:20.081Z,45.9
2022-11-23T07:29:49.031Z,45.9
2022-11-23T07:35:31.079Z,45.9
2022-11-23T07:41:35.642Z,45.8
2022-11-23T07:47:45.428Z,45.8
2022-11-23T07:53:25.043Z,45.7
2022-11-23T07:59:04.376Z,45.7
2022-11-23T08:05:26.391Z,45.6
2022-11-23T08:11:09.421Z,45.6
2022-11-23T08:16:31.469Z,45.6
2022-11-23T08:22:12.344Z,45.5
2022-11-23T08:27:54.164Z,45.4
2022-11-23T08:33:32.319Z,45.4
2022-11-23T08:39:10.919Z,45.4
2022-11-23T08:44:55.685Z,45.3
2022-11-23T08:50:38.849Z,45.3
2022-11-23T08:56:06.879Z,45.3
2022-11-23T09:01:44.664Z,45.2
2022-11-23T09:07:28.897Z,45.1
2022-11-23T09:13:09.940Z,45.1
2022-11-23T09:18:51.963Z,45.1
2022-11-23T09:24:37.554Z,45.1
2022-11-23T09:30:21.691Z,44.9
2022-11-23T09:36:00.726Z,45.4
2022-11-23T09:42:03.938Z,46.3
2022-11-23T09:47:43.303Z,47.1
2022-11-23T09:53:21.541Z,47.9
2022-11-23T09:59:03.218Z,48.8
2022-11-23T10:04:26.576Z,49.4
2022-11-23T10:10:04.693Z,50.1
2022-11-23T10:15:47.562Z,50.5
2022-11-23T10:21:25.571Z,50.8
2022-11-23T10:27:03.431Z,51.3
2022-11-23T10:32:46.285Z,51.9
2022-11-23T10:38:31.687Z,52.4
2022-11-23T10:44:08.785Z,52.8
2022-11-23T10:49:47.079Z,53.1
2022-11-23T10:55:28.818Z,53.1
2022-11-23T11:01:06.660Z,53.1
2022-11-23T11:07:19.318Z,53.1
2022-11-23T11:13:01.878Z,53.6
2022-11-23T11:18:55.224Z,53.9
2022-11-23T11:24:33.153Z,53.9
2022-11-23T11:30:12.801Z,53.9
2022-11-23T11:35:55.089Z,54.4
2022-11-23T11:41:52.525Z,54.9
2022-11-23T11:48:07.668Z,55.1
2022-11-23T11:53:45.155Z,55
2022-11-23T11:59:13.087Z,55
2022-11-23T12:04:53.209Z,55
2022-11-23T12:10:19.286Z,55
2022-11-23T12:16:30.563Z,54.9
2022-11-23T12:22:13.992Z,55.4
2022-11-23T12:27:36.552Z,55.5
2022-11-23T12:33:14.715Z,55.5
2022-11-23T12:38:56.671Z,55.5
2022-11-23T12:44:39.616Z,55.4
2022-11-23T12:50:02.252Z,55.4
2022-11-23T12:55:41.446Z,55.4
2022-11-23T13:01:04.334Z,55.4
2022-11-23T13:06:54.004Z,55.4
2022-11-23T13:12:41.215Z,55.4
2022-11-23T13:18:22.230Z,55.4
2022-11-23T13:23:48.876Z,55.4
2022-11-23T13:29:33.284Z,55.4
2022-11-23T13:35:50.934Z,55.4
2022-11-23T13:42:06.135Z,55.3
2022-11-23T13:47:45.187Z,55.3
2022-11-23T13:53:53.005Z,55.3
2022-11-23T13:59:35.854Z,55.2
2022-11-23T14:05:21.102Z,55.2
2022-11-23T14:10:59.955Z,55.2
2022-11-23T14:16:38.275Z,55.1
2022-11-23T14:22:16.010Z,55.1
2022-11-23T14:28:01.723Z,55.1
2022-11-23T14:33:40.049Z,55
2022-11-23T14:39:23.184Z,54.9
2022-11-23T14:45:01.614Z,54.9
2022-11-23T14:50:40.862Z,54.9
2022-11-23T14:56:22.334Z,54.8
2022-11-23T15:02:00.391Z,54.8
2022-11-23T15:08:09.932Z,54.8
2022-11-23T15:13:32.662Z,54.7
2022-11-23T15:19:10.671Z,54.7
2022-11-23T15:24:52.594Z,54.6
2022-11-23T15:31:00.164Z,54.6
2022-11-23T15:36:56.195Z,54.5
2022-11-23T15:42:22.856Z,54.5
2022-11-23T15:48:03.619Z,54.4
2022-11-23T15:53:42.129Z,54.4
2022-11-23T15:59:24.917Z,54.4
2022-11-23T16:05:06.359Z,54.4
2022-11-23T16:11:23.700Z,54.3
2022-11-23T16:17:07.066Z,54.3
2022-11-23T16:22:51.495Z,54.2
2022-11-23T16:28:14.421Z,54.2
2022-11-23T16:33:58.416Z,54.1
2022-11-23T16:39:38.937Z,54.1
2022-11-23T16:45:18.449Z,54.1
2022-11-23T16:50:59.674Z,54
2022-11-23T16:57:22.325Z,53.9
2022-11-23T17:08:12.035Z,53.9
2022-11-23T17:13:56.666Z,53.8
2022-11-23T17:19:40.994Z,53.8
2022-11-23T17:25:31.280Z,53.8
2022-11-23T17:31:09.434Z,53.8
2022-11-23T17:36:47.335Z,53.7
2022-11-23T17:42:26.027Z,53.6
2022-11-23T17:47:49.103Z,53.6
2022-11-23T17:53:11.540Z,53.6
2022-11-23T17:58:49.323Z,53.6
2022-11-23T18:04:17.977Z,53.5
2022-11-23T18:09:56.472Z,53.4
2022-11-23T18:15:35.029Z,53.4
2022-11-23T18:21:13.763Z,53.4
2022-11-23T18:26:56.097Z,53.3
2022-11-23T18:32:41.252Z,53.3
2022-11-23T18:38:23.408Z,53.3
2022-11-23T18:43:51.809Z,53.2
2022-11-23T18:54:56.658Z,53.1
2022-11-23T19:00:49.157Z,53.1
2022-11-23T19:06:33.698Z,53.1
2022-11-23T19:12:17.208Z,53
2022-11-23T19:17:56.710Z,52.9
2022-11-23T19:23:21.950Z,52.9
2022-11-23T19:28:48.891Z,52.9
2022-11-23T19:34:16.130Z,52.9
2022-11-23T19:39:40.141Z,52.8
2022-11-23T19:45:10.922Z,52.8
2022-11-23T19:50:58.323Z,52.8
2022-11-23T19:56:56.959Z,52.7
2022-11-23T20:02:37.287Z,52.7
2022-11-23T20:08:07.584Z,52.6
2022-11-23T20:13:52.636Z,52.6
2022-11-23T20:19:19.268Z,52.6
2022-11-23T20:24:58.749Z,52.5
2022-11-23T20:30:37.971Z,52.4
2022-11-23T20:36:12.404Z,52.4
2022-11-23T20:53:13.486Z,52.3
2022-11-23T20:58:56.866Z,52.3
2022-11-23T21:04:36.591Z,52.3
2022-11-23T21:10:28.254Z,52.2
2022-11-23T21:16:23.870Z,52.1
2022-11-23T21:22:01.974Z,52.1
2022-11-23T21:27:40.048Z,52.1
2022-11-23T21:33:18.477Z,52.1
2022-11-23T21:38:59.339Z,52
2022-11-23T21:55:03.835Z,51.9
2022-11-23T22:00:31.109Z,51.9
2022-11-23T22:06:10.257Z,51.8
2022-11-23T22:12:12.027Z,51.8
2022-11-23T22:17:35.769Z,51.8
2022-11-23T22:23:13.687Z,51.7
2022-11-23T22:28:55.674Z,51.6
2022-11-23T22:34:18.856Z,51.6
2022-11-23T22:39:51.326Z,51.6
2022-11-23T22:45:28.464Z,51.6
2022-11-23T22:51:10.915Z,51.5
2022-11-23T22:56:37.105Z,51.4
2022-11-23T23:02:15.039Z,51.4
2022-11-23T23:07:38.865Z,51.4
2022-11-23T23:13:16.054Z,51.3
2022-11-23T23:18:38.581Z,51.3
2022-11-23T23:24:01.362Z,51.3
2022-11-23T23:29:24.217Z,51.2
2022-11-23T23:35:02.060Z,51.2
2022-11-23T23:40:39.953Z,51.1
2022-11-23T23:46:17.406Z,51.1
2022-11-23T23:51:55.394Z,51.1
2022-11-23T23:57:33.550Z,51
